createdAt,value
2022-09-12T00:00:11.718Z,15.19
2022-09-12T00:03:14.619Z,15.11
2022-09-12T00:06:22.961Z,15.11
2022-09-12T00:09:25.838Z,15.26
2022-09-12T00:12:29.662Z,15.16
2022-09-12T00:15:32.194Z,15.02
2022-09-12T00:18:35.432Z,15.10
2022-09-12T00:21:39.782Z,15.06
2022-09-12T00:24:42.249Z,14.99
2022-09-12T00:27:46.053Z,14.88
2022-09-12T00:30:49.801Z,14.87
2022-09-12T00:33:52.638Z,14.99
2022-09-12T00:36:55.123Z,14.99
2022-09-12T00:39:58.530Z,14.92
2022-09-12T00:43:02.381Z,14.82
2022-09-12T00:46:14.497Z,14.81
2022-09-12T00:49:21.290Z,14.80
2022-09-12T00:52:30.300Z,14.71
2022-09-12T00:55:37.466Z,14.62
2022-09-12T00:58:46.488Z,14.70
2022-09-12T01:01:51.911Z,14.51
2022-09-12T01:04:55.387Z,14.61
2022-09-12T01:07:58.414Z,14.66
2022-09-12T01:11:00.959Z,14.61
2022-09-12T01:14:04.792Z,14.68
2022-09-12T01:17:07.522Z,14.73
2022-09-12T01:20:31.593Z,14.59
2022-09-12T01:24:07.928Z,14.55
2022-09-12T01:27:34.743Z,14.57
2022-09-12T01:30:46.367Z,14.54
2022-09-12T01:33:59.694Z,14.32
2022-09-12T01:37:09.389Z,14.20
2022-09-12T01:40:22.071Z,14.17
2022-09-12T01:43:31.736Z,14.10
2022-09-12T01:46:44.212Z,14.20
2022-09-12T01:49:56.151Z,14.30
2022-09-12T01:53:03.148Z,14.18
2022-09-12T01:56:12.526Z,14.27
2022-09-12T01:59:21.258Z,14.10
2022-09-12T02:02:31.957Z,13.99
2022-09-12T02:05:37.859Z,14.27
2022-09-12T02:08:45.301Z,14.26
2022-09-12T02:11:51.241Z,14.03
2022-09-12T02:14:59.699Z,13.95
2022-09-12T02:18:06.845Z,14.02
2022-09-12T02:21:09.773Z,14.18
2022-09-12T02:24:15.746Z,14.10
2022-09-12T02:27:23.420Z,13.88
2022-09-12T02:30:26.328Z,14.05
2022-09-12T02:33:36.418Z,14.08
2022-09-12T02:36:49.845Z,13.96
2022-09-12T02:39:54.976Z,14.01
2022-09-12T02:42:58.654Z,14.04
2022-09-12T02:46:01.422Z,13.91
2022-09-12T02:49:05.731Z,13.88
2022-09-12T02:52:08.385Z,13.91
2022-09-12T02:55:12.522Z,13.85
2022-09-12T02:58:18.795Z,13.77
2022-09-12T03:01:34.774Z,13.63
2022-09-12T03:05:03.182Z,13.73
2022-09-12T03:08:45.145Z,13.87
2022-09-12T03:12:03.723Z,13.71
2022-09-12T03:15:15.646Z,13.57
2022-09-12T03:18:27.973Z,13.81
2022-09-12T03:21:38.122Z,13.63
2022-09-12T03:24:51.817Z,13.72
2022-09-12T03:27:59.014Z,13.60
2022-09-12T03:31:01.576Z,13.47
2022-09-12T03:34:04.320Z,13.66
2022-09-12T03:37:08.230Z,13.52
2022-09-12T03:40:13.288Z,13.54
2022-09-12T03:43:15.921Z,13.55
2022-09-12T03:46:18.450Z,13.53
2022-09-12T03:49:20.944Z,13.44
2022-09-12T03:52:25.212Z,13.36
2022-09-12T03:55:27.767Z,13.42
2022-09-12T03:58:32.116Z,13.48
2022-09-12T04:01:35.391Z,13.60
2022-09-12T04:04:37.884Z,13.44
2022-09-12T04:07:41.717Z,13.40
2022-09-12T04:10:44.234Z,13.50
2022-09-12T04:13:47.489Z,13.55
2022-09-12T04:16:50.354Z,13.58
2022-09-12T04:19:52.853Z,13.31
2022-09-12T04:22:56.689Z,13.25
2022-09-12T04:26:00.992Z,13.49
2022-09-12T04:29:03.516Z,13.41
2022-09-12T04:32:06.414Z,13.26
2022-09-12T04:35:11.209Z,13.22
2022-09-12T04:38:15.478Z,13.24
2022-09-12T04:41:20.107Z,13.37
2022-09-12T04:44:22.617Z,13.34
2022-09-12T04:47:25.081Z,13.30
2022-09-12T04:50:27.711Z,13.15
2022-09-12T04:53:31.600Z,13.22
2022-09-12T04:56:38.316Z,13.17
2022-09-12T04:59:41.008Z,13.28
2022-09-12T05:02:43.491Z,13.16
2022-09-12T05:05:45.962Z,13.06
2022-09-12T05:08:49.929Z,13.11
2022-09-12T05:12:07.890Z,13.31
2022-09-12T05:15:11.483Z,13.18
2022-09-12T05:18:13.965Z,13.08
2022-09-12T05:21:17.810Z,13.07
2022-09-12T05:24:21.639Z,13.08
2022-09-12T05:27:24.147Z,13.17
2022-09-12T05:30:26.651Z,13.06
2022-09-12T05:33:29.518Z,13.07
2022-09-12T05:36:32.403Z,13.12
2022-09-12T05:39:36.448Z,13.05
2022-09-12T05:42:38.928Z,13.33
2022-09-12T05:45:42.114Z,13.38
2022-09-12T05:48:46.300Z,13.11
2022-09-12T05:51:48.899Z,13.21
2022-09-12T05:54:52.718Z,13.22
2022-09-12T05:57:55.217Z,13.31
2022-09-12T06:01:02.901Z,13.40
2022-09-12T06:04:07.331Z,13.44
2022-09-12T06:07:09.997Z,13.45
2022-09-12T06:10:14.134Z,13.40
2022-09-12T06:13:16.610Z,13.54
2022-09-12T06:16:20.878Z,13.72
2022-09-12T06:19:25.009Z,13.80
2022-09-12T06:22:27.492Z,13.82
2022-09-12T06:25:31.414Z,13.87
2022-09-12T06:28:36.152Z,14.01
2022-09-12T06:31:41.326Z,14.08
2022-09-12T06:34:43.813Z,14.18
2022-09-12T06:37:46.580Z,14.27
2022-09-12T06:40:51.449Z,14.43
2022-09-12T06:43:54.728Z,14.58
2022-09-12T06:46:58.651Z,14.73
2022-09-12T06:50:01.261Z,14.86
2022-09-12T06:53:04.019Z,14.96
2022-09-12T06:56:11.065Z,15.15
2022-09-12T06:59:13.619Z,15.24
2022-09-12T07:02:16.197Z,15.42
2022-09-12T07:05:18.771Z,15.60
2022-09-12T07:08:21.275Z,15.69
2022-09-12T07:11:26.961Z,15.93
2022-09-12T07:14:29.484Z,15.98
2022-09-12T07:17:31.965Z,16.24
2022-09-12T07:20:34.607Z,16.40
2022-09-12T07:23:37.132Z,16.36
2022-09-12T07:26:42.602Z,16.59
2022-09-12T07:29:46.774Z,16.60
2022-09-12T07:32:53.290Z,16.84
2022-09-12T07:35:56.057Z,17.04
2022-09-12T07:38:59.360Z,16.94
2022-09-12T07:42:03.468Z,17.09
2022-09-12T07:45:06.478Z,17.24
2022-09-12T07:48:09.005Z,17.21
2022-09-12T07:51:12.920Z,17.53
2022-09-12T07:54:15.772Z,17.59
2022-09-12T07:57:19.616Z,17.67
2022-09-12T08:00:22.305Z,17.68
2022-09-12T08:03:24.826Z,17.81
2022-09-12T08:06:30.214Z,18.06
2022-09-12T08:09:32.817Z,18.12
2022-09-12T08:12:36.783Z,18.58
2022-09-12T08:15:39.333Z,18.53
2022-09-12T08:18:42.282Z,18.69
2022-09-12T08:21:44.755Z,19.03
2022-09-12T08:24:47.257Z,18.73
2022-09-12T08:27:51.150Z,18.84
2022-09-12T08:30:54.040Z,19.37
2022-09-12T08:33:57.657Z,20.04
2022-09-12T08:37:01.212Z,19.92
2022-09-12T08:40:06.664Z,20.25
2022-09-12T08:43:22.139Z,20.50
2022-09-12T08:46:30.032Z,20.74
2022-09-12T08:49:35.533Z,20.82
2022-09-12T08:52:44.382Z,20.74
2022-09-12T08:55:53.702Z,21.00
2022-09-12T08:58:57.566Z,20.24
2022-09-12T09:02:04.374Z,19.99
2022-09-12T09:05:20.069Z,20.43
2022-09-12T09:08:36.250Z,20.81
2022-09-12T09:11:58.647Z,21.11
2022-09-12T09:15:22.015Z,21.59
2022-09-12T09:18:28.715Z,21.70
2022-09-12T09:21:36.625Z,21.61
2022-09-12T09:24:45.901Z,21.62
2022-09-12T09:27:54.813Z,21.91
2022-09-12T09:30:59.302Z,22.19
2022-09-12T09:34:01.936Z,21.85
2022-09-12T09:37:16.203Z,22.16
2022-09-12T09:40:24.747Z,22.70
2022-09-12T09:43:28.983Z,22.96
2022-09-12T09:46:33.746Z,22.66
2022-09-12T09:49:37.428Z,22.92
2022-09-12T09:52:40.743Z,23.53
2022-09-12T09:55:44.238Z,23.65
2022-09-12T09:58:46.860Z,23.23
2022-09-12T10:01:54.760Z,22.56
2022-09-12T10:04:59.810Z,22.79
2022-09-12T10:08:03.492Z,22.15
2022-09-12T10:11:08.244Z,22.40
2022-09-12T10:14:29.458Z,21.98
2022-09-12T10:17:42.990Z,22.13
2022-09-12T10:20:46.587Z,22.58
2022-09-12T10:23:54.115Z,23.04
2022-09-12T10:26:59.210Z,23.37
2022-09-12T10:30:03.976Z,22.97
2022-09-12T10:33:13.136Z,22.94
2022-09-12T10:36:17.014Z,23.59
2022-09-12T10:39:20.501Z,23.98
2022-09-12T10:42:50.044Z,23.90
2022-09-12T10:45:52.800Z,24.29
2022-09-12T10:49:15.755Z,24.00
2022-09-12T10:52:23.077Z,23.82
2022-09-12T10:55:35.161Z,23.24
2022-09-12T10:58:50.797Z,23.75
2022-09-12T11:02:00.861Z,24.28
2022-09-12T11:05:13.883Z,23.96
2022-09-12T11:08:45.677Z,24.14
2022-09-12T11:12:02.354Z,24.24
2022-09-12T11:15:24.972Z,24.24
2022-09-12T11:18:45.046Z,24.70
2022-09-12T11:22:05.279Z,24.75
2022-09-12T11:25:18.862Z,24.20
2022-09-12T11:28:32.290Z,23.55
2022-09-12T11:31:53.511Z,24.08
2022-09-12T11:35:03.292Z,24.10
2022-09-12T11:38:33.367Z,23.84
2022-09-12T11:41:38.774Z,23.86
2022-09-12T11:44:44.651Z,23.76
2022-09-12T11:47:53.967Z,23.88
2022-09-12T11:50:57.792Z,23.93
2022-09-12T11:54:13.078Z,24.30
2022-09-12T11:57:19.011Z,23.91
2022-09-12T12:00:23.993Z,24.24
2022-09-12T12:03:33.114Z,24.44
2022-09-12T12:06:46.429Z,24.23
2022-09-12T12:09:53.258Z,24.15
2022-09-12T12:12:57.558Z,23.76
2022-09-12T12:16:04.220Z,23.92
2022-09-12T12:19:21.291Z,24.37
2022-09-12T12:22:25.609Z,24.41
2022-09-12T12:25:41.757Z,24.28
2022-09-12T12:28:59.059Z,24.38
2022-09-12T12:32:22.592Z,24.48
2022-09-12T12:35:42.893Z,24.92
2022-09-12T12:38:45.734Z,24.90
2022-09-12T12:41:49.687Z,25.09
2022-09-12T12:44:52.459Z,24.66
2022-09-12T12:47:57.830Z,25.40
2022-09-12T12:51:37.908Z,26.05
2022-09-12T12:54:53.632Z,25.20
2022-09-12T12:57:58.671Z,25.66
2022-09-12T13:01:12.581Z,25.69
2022-09-12T13:04:18.738Z,25.91
2022-09-12T13:07:34.257Z,25.94
2022-09-12T13:10:37.825Z,25.68
2022-09-12T13:13:46.371Z,25.41
2022-09-12T13:16:55.518Z,24.67
2022-09-12T13:20:29.184Z,24.76
2022-09-12T13:23:33.411Z,24.62
2022-09-12T13:26:41.794Z,24.52
2022-09-12T13:29:45.674Z,24.59
2022-09-12T13:32:48.239Z,24.57
2022-09-12T13:36:05.908Z,24.51
2022-09-12T13:39:17.627Z,24.38
2022-09-12T13:42:39.241Z,24.10
2022-09-12T13:45:46.676Z,24.00
2022-09-12T13:48:49.427Z,23.67
2022-09-12T13:52:02.006Z,23.66
2022-09-12T13:55:09.084Z,23.86
2022-09-12T13:58:19.303Z,24.12
2022-09-12T14:01:24.018Z,24.16
2022-09-12T14:04:45.157Z,24.00
2022-09-12T14:07:56.061Z,23.99
2022-09-12T14:10:59.118Z,24.02
2022-09-12T14:14:07.444Z,23.51
2022-09-12T14:17:23.018Z,23.58
2022-09-12T14:20:27.782Z,23.24
2022-09-12T14:23:32.190Z,23.14
2022-09-12T14:26:36.795Z,23.39
2022-09-12T14:29:43.247Z,23.42
2022-09-12T14:33:03.781Z,23.49
2022-09-12T14:36:13.016Z,23.63
2022-09-12T14:39:21.777Z,23.59
2022-09-12T14:42:30.994Z,23.10
2022-09-12T14:45:33.823Z,23.21
2022-09-12T14:48:44.059Z,23.21
2022-09-12T14:51:55.887Z,23.10
2022-09-12T14:55:00.297Z,23.05
2022-09-12T14:58:16.513Z,23.14
2022-09-12T15:01:27.390Z,23.11
2022-09-12T15:04:41.537Z,22.94
2022-09-12T15:07:47.152Z,22.91
2022-09-12T15:10:49.846Z,22.66
2022-09-12T15:13:52.420Z,22.75
2022-09-12T15:16:54.929Z,22.70
2022-09-12T15:19:58.765Z,22.71
2022-09-12T15:23:01.242Z,22.68
2022-09-12T15:26:04.246Z,22.67
2022-09-12T15:29:06.858Z,22.43
2022-09-12T15:32:23.513Z,22.24
2022-09-12T15:35:33.965Z,22.44
2022-09-12T15:38:36.457Z,22.30
2022-09-12T15:41:40.643Z,22.33
2022-09-12T15:44:43.450Z,22.18
2022-09-12T15:47:45.968Z,22.39
2022-09-12T15:50:49.875Z,22.31
2022-09-12T15:53:53.021Z,22.57
2022-09-12T15:56:55.607Z,22.53
2022-09-12T15:59:58.094Z,22.46
2022-09-12T16:03:00.860Z,22.29
2022-09-12T16:06:05.723Z,22.45
2022-09-12T16:09:08.428Z,22.39
2022-09-12T16:12:10.919Z,22.21
2022-09-12T16:15:15.516Z,22.26
2022-09-12T16:18:18.280Z,22.20
2022-09-12T16:21:22.201Z,22.21
2022-09-12T16:24:24.700Z,22.19
2022-09-12T16:27:27.185Z,22.13
2022-09-12T16:30:29.714Z,22.06
2022-09-12T16:33:33.051Z,21.95
2022-09-12T16:36:36.858Z,21.88
2022-09-12T16:39:39.361Z,21.92
2022-09-12T16:42:43.896Z,21.83
2022-09-12T16:45:46.689Z,21.79
2022-09-12T16:48:52.663Z,21.73
2022-09-12T16:51:56.781Z,21.79
2022-09-12T16:54:59.270Z,21.76
2022-09-12T16:58:01.773Z,21.58
2022-09-12T17:01:06.498Z,21.55
2022-09-12T17:04:11.715Z,21.43
2022-09-12T17:07:15.529Z,21.38
2022-09-12T17:10:18.230Z,21.26
2022-09-12T17:13:20.705Z,21.17
2022-09-12T17:16:23.860Z,21.09
2022-09-12T17:19:29.628Z,21.08
2022-09-12T17:22:34.020Z,20.99
2022-09-12T17:25:36.678Z,20.88
2022-09-12T17:28:40.254Z,20.74
2022-09-12T17:31:43.192Z,20.64
2022-09-12T17:34:45.706Z,20.54
2022-09-12T17:37:49.562Z,20.83
2022-09-12T17:40:59.456Z,20.57
2022-09-12T17:44:03.429Z,20.39
2022-09-12T17:47:06.126Z,20.34
2022-09-12T17:50:30.774Z,20.33
2022-09-12T17:53:34.129Z,20.23
2022-09-12T17:56:38.386Z,20.23
2022-09-12T17:59:40.862Z,20.18
2022-09-12T18:02:43.035Z,20.12
2022-09-12T18:05:47.537Z,20.09
2022-09-12T18:08:51.608Z,20.13
2022-09-12T18:11:54.542Z,20.08
2022-09-12T18:14:57.113Z,20.07
2022-09-12T18:17:59.597Z,20.05
2022-09-12T18:21:02.662Z,20.12
2022-09-12T18:24:07.121Z,20.11
2022-09-12T18:27:09.624Z,20.05
2022-09-12T18:30:22.088Z,20.08
2022-09-12T18:33:24.833Z,20.02
2022-09-12T18:36:28.251Z,19.96
2022-09-12T18:39:32.126Z,19.98
2022-09-12T18:42:34.628Z,19.98
2022-09-12T18:45:37.143Z,19.95
2022-09-12T18:48:39.787Z,19.95
2022-09-12T18:51:42.244Z,19.93
2022-09-12T18:54:46.077Z,19.88
2022-09-12T18:57:48.562Z,19.84
2022-09-12T19:00:51.319Z,19.82
2022-09-12T19:03:54.850Z,19.69
2022-09-12T19:06:57.398Z,19.76
2022-09-12T19:10:01.300Z,19.78
2022-09-12T19:13:03.811Z,19.81
2022-09-12T19:16:09.214Z,19.76
2022-09-12T19:19:11.792Z,19.72
2022-09-12T19:22:14.269Z,19.68
2022-09-12T19:25:18.105Z,19.75
2022-09-12T19:28:20.573Z,19.66
2022-09-12T19:31:24.327Z,19.77
2022-09-12T19:34:26.922Z,19.70
2022-09-12T19:37:30.500Z,19.77
2022-09-12T19:40:34.537Z,19.75
2022-09-12T19:43:37.301Z,19.68
2022-09-12T19:46:40.436Z,19.67
2022-09-12T19:49:43.023Z,19.66
2022-09-12T19:52:45.514Z,19.58
2022-09-12T19:55:49.340Z,19.55
2022-09-12T19:58:56.079Z,19.52
2022-09-12T20:01:59.200Z,19.41
2022-09-12T20:05:01.860Z,19.42
2022-09-12T20:08:04.340Z,19.45
2022-09-12T20:11:08.717Z,19.47
2022-09-12T20:14:11.363Z,19.55
2022-09-12T20:17:14.481Z,19.54
2022-09-12T20:20:17.203Z,19.56
2022-09-12T20:23:19.701Z,19.50
2022-09-12T20:26:24.907Z,19.50
2022-09-12T20:29:27.675Z,19.33
2022-09-12T20:32:30.788Z,19.36
2022-09-12T20:35:33.426Z,19.35
2022-09-12T20:38:36.999Z,19.32
2022-09-12T20:41:40.880Z,19.24
2022-09-12T20:44:43.396Z,19.22
2022-09-12T20:47:45.895Z,19.23
2022-09-12T20:50:48.588Z,19.00
2022-09-12T20:53:54.177Z,19.09
2022-09-12T20:56:58.077Z,19.01
2022-09-12T21:00:00.559Z,19.00
2022-09-12T21:03:03.081Z,18.95
2022-09-12T21:06:06.362Z,18.79
2022-09-12T21:09:08.936Z,18.77
2022-09-12T21:12:12.761Z,18.76
2022-09-12T21:15:15.380Z,18.68
2022-09-12T21:18:17.865Z,18.63
2022-09-12T21:21:20.880Z,18.71
2022-09-12T21:24:23.513Z,18.70
2022-09-12T21:27:27.686Z,18.68
2022-09-12T21:30:30.167Z,18.61
2022-09-12T21:33:32.767Z,18.32
2022-09-12T21:36:35.250Z,18.46
2022-09-12T21:39:37.768Z,18.30
2022-09-12T21:42:41.569Z,18.44
2022-09-12T21:45:44.064Z,18.36
2022-09-12T21:48:46.560Z,18.39
2022-09-12T21:51:49.076Z,18.41
2022-09-12T21:54:51.549Z,18.35
2022-09-12T21:57:55.743Z,18.37
2022-09-12T22:00:58.319Z,18.35
2022-09-12T22:04:00.868Z,18.23
2022-09-12T22:07:03.365Z,18.32
2022-09-12T22:10:07.443Z,18.31
2022-09-12T22:13:11.283Z,18.41
2022-09-12T22:16:13.812Z,18.34
2022-09-12T22:19:16.320Z,18.45
2022-09-12T22:22:36.444Z,18.39
2022-09-12T22:25:39.083Z,18.46
2022-09-12T22:28:43.116Z,18.41
2022-09-12T22:31:45.956Z,18.33
2022-09-12T22:34:48.559Z,18.34
2022-09-12T22:37:51.051Z,18.29
2022-09-12T22:40:53.557Z,18.32
2022-09-12T22:43:57.506Z,18.33
2022-09-12T22:46:59.990Z,18.30
2022-09-12T22:50:02.505Z,18.27
2022-09-12T22:53:05.130Z,18.22
2022-09-12T22:56:09.042Z,18.21
2022-09-12T22:59:13.113Z,18.25
2022-09-12T23:02:15.635Z,18.20
2022-09-12T23:05:18.122Z,18.21
2022-09-12T23:08:20.609Z,18.22
2022-09-12T23:11:23.959Z,18.13
2022-09-12T23:14:27.790Z,18.23
2022-09-12T23:17:30.267Z,18.30
2022-09-12T23:20:32.778Z,18.31
2022-09-12T23:23:36.087Z,18.34
2022-09-12T23:26:38.735Z,18.30
2022-09-12T23:29:42.555Z,18.37
2022-09-12T23:32:45.068Z,18.36
2022-09-12T23:35:47.578Z,18.29
2022-09-12T23:38:50.542Z,18.34
2022-09-12T23:41:53.146Z,18.27
2022-09-12T23:44:56.987Z,18.25
2022-09-12T23:47:59.482Z,18.32
2022-09-12T23:51:02.002Z,18.33
2022-09-12T23:54:04.605Z,18.32
2022-09-12T23:57:07.093Z,18.14
